Hauptseite
METAR-TAF:

METAR-TAF

Flughäfen :

Heeresflugplatz Altenstadt

Altenstadt, Deutschland

Breite: 47-50N, Länge: 010-52E, Höhe: 739 m

Beobachtung

Neuester Wetterbericht von vor 37 Minuten, um 00:20 UTC
Wind 13 kt aus West
Temperatur 10°C
Luftfeuchtigkeit 53%
Luftdruck 1010 hPa
Sichtweite 10 km oder mehr

METAR: ETHA 220020Z AUTO 28013KT 9999 // ////// 10/01 Q1010 ///

Zeit: 01:57 (00:57 UTC)

Prognose

Neuester Wetterbericht von vor 10 Stunden und 39 Minuten, um 14:18 UTC
Gültige Prognose vom 21 um 15 UTC bis 21 um 24 UTC
Wind 5 kt aus West
Sichtweite 10 km oder mehr
Leicht bewölkt in der Höhe von 10000 ft
Durchbrochene Bewölkung in der Höhe von 18000 ft

TAF: ETHA 211418Z 2115/2124 27005KT 9999 NSW FEW100 BKN180

Wetterbeobachtungen und Prognosen von mehr als 4000 Flughäfen (METAR und TAF Bericht).

Die verfügbaren Stationen werden durch gelbe und rote Markierungen auf der Karte dargestellt.

Führen Sie die Maus auf sie, um den Namen der Station zu sehen.

Darauf klicken, um die Beobachtung von Wetterbeobachtungen und Prognosen zu sehen.

Um die Karte zu ändern : klicken Sie auf den grünen Tasten mit einem schwarzen Kreuz Zum Vergrößern, auf den grünen Button mit einem Gedankenstrich zu verkleinern, oder auf die grünen Pfeile für benachbarte Karten.


METAR-TAF: